createdAt,value
2023-01-09T00:02:06.867Z,97473.59
2023-01-09T00:04:37.307Z,97470.38
2023-01-09T00:07:06.045Z,97469.72
2023-01-09T00:09:34.770Z,97470.28
2023-01-09T00:12:03.738Z,97458.13
2023-01-09T00:14:32.426Z,97454.94
2023-01-09T00:17:05.388Z,97458.94
2023-01-09T00:19:34.145Z,97448.91
2023-01-09T00:22:04.251Z,97438.03
2023-01-09T00:24:33.023Z,97443.34
2023-01-09T00:27:01.666Z,97443.59
2023-01-09T00:29:30.473Z,97441.75
2023-01-09T00:31:59.178Z,97436.44
2023-01-09T00:34:28.016Z,97434.84
2023-01-09T00:36:56.846Z,97428.38
2023-01-09T00:39:27.000Z,97429.19
2023-01-09T00:41:58.672Z,97419.94
2023-01-09T00:44:34.881Z,97417.53
2023-01-09T00:47:11.033Z,97416.16
2023-01-09T00:49:39.946Z,97412.91
2023-01-09T00:52:12.177Z,97407.63
2023-01-09T00:54:44.907Z,97407.84
2023-01-09T00:57:15.823Z,97403.59
2023-01-09T00:59:45.459Z,97397.50
2023-01-09T01:02:14.320Z,97395.88
2023-01-09T01:05:00.193Z,97392.63
2023-01-09T01:07:45.253Z,97391.03
2023-01-09T01:10:20.522Z,97378.00
2023-01-09T01:12:50.221Z,97383.31
2023-01-09T01:15:20.659Z,97375.25
2023-01-09T01:17:49.822Z,97375.41
2023-01-09T01:20:20.966Z,97364.16
2023-01-09T01:22:49.854Z,97360.59
2023-01-09T01:25:20.417Z,97357.69
2023-01-09T01:27:51.946Z,97360.09
2023-01-09T01:30:21.170Z,97363.66
2023-01-09T01:32:49.921Z,97362.41
2023-01-09T01:35:18.683Z,97355.69
2023-01-09T01:37:49.761Z,97357.88
2023-01-09T01:40:21.472Z,97357.88
2023-01-09T01:42:53.014Z,97352.59
2023-01-09T01:45:23.889Z,97343.47
2023-01-09T01:48:01.096Z,97339.63
2023-01-09T01:50:36.711Z,97330.38
2023-01-09T01:53:15.272Z,97337.78
2023-01-09T01:55:52.797Z,97331.50
2023-01-09T01:58:22.182Z,97330.66
2023-01-09T02:00:51.030Z,97318.66
2023-01-09T02:03:24.544Z,97324.13
2023-01-09T02:05:53.415Z,97312.22
2023-01-09T02:08:23.619Z,97318.66
2023-01-09T02:10:56.001Z,97309.25
2023-01-09T02:13:26.217Z,97315.75
2023-01-09T02:16:19.479Z,97304.31
2023-01-09T02:18:55.500Z,97288.03
2023-01-09T02:21:39.220Z,97282.78
2023-01-09T02:24:43.290Z,97280.22
2023-01-09T02:27:54.296Z,97268.72
2023-01-09T02:30:47.832Z,97263.81
2023-01-09T02:33:37.013Z,97260.66
2023-01-09T02:36:23.786Z,97265.09
2023-01-09T02:39:21.957Z,97266.47
2023-01-09T02:41:59.705Z,97260.09
2023-01-09T02:44:31.533Z,97261.25
2023-01-09T02:47:07.291Z,97255.03
2023-01-09T02:49:39.730Z,97254.06
2023-01-09T02:52:32.151Z,97258.31
2023-01-09T02:55:12.102Z,97250.44
2023-01-09T02:57:59.494Z,97247.81
2023-01-09T03:00:42.224Z,97244.16
2023-01-09T03:03:27.623Z,97237.84
2023-01-09T03:06:07.575Z,97237.03
2023-01-09T03:08:44.606Z,97240.25
2023-01-09T03:11:13.668Z,97246.66
2023-01-09T03:13:51.101Z,97250.69
2023-01-09T03:16:26.927Z,97251.75
2023-01-09T03:19:00.679Z,97251.50
2023-01-09T03:21:30.158Z,97254.97
2023-01-09T03:24:02.522Z,97253.66
2023-01-09T03:26:32.331Z,97239.56
2023-01-09T03:29:01.367Z,97241.69
2023-01-09T03:31:30.355Z,97243.59
2023-01-09T03:34:00.503Z,97233.78
2023-01-09T03:36:29.346Z,97230.50
2023-01-09T03:38:58.074Z,97228.13
2023-01-09T03:41:26.818Z,97233.44
2023-01-09T03:43:55.535Z,97230.56
2023-01-09T03:46:24.227Z,97230.78
2023-01-09T03:48:52.900Z,97228.47
2023-01-09T03:51:24.024Z,97224.13
2023-01-09T03:53:52.743Z,97218.31
2023-01-09T03:56:21.425Z,97218.31
2023-01-09T03:58:50.597Z,97213.81
2023-01-09T04:01:19.381Z,97206.97
2023-01-09T04:03:48.187Z,97197.72
2023-01-09T04:06:16.981Z,97194.53
2023-01-09T04:08:47.050Z,97197.44
2023-01-09T04:14:05.978Z,97184.22
2023-01-09T04:16:33.323Z,97184.97
2023-01-09T04:19:01.149Z,97187.09
2023-01-09T04:21:28.507Z,97185.44
2023-01-09T04:23:56.034Z,97183.38
2023-01-09T04:26:23.675Z,97182.84
2023-01-09T04:28:51.344Z,97186.88
2023-01-09T04:44:25.596Z,97191.09
2023-01-09T04:46:55.903Z,97184.13
2023-01-09T04:49:25.160Z,97185.72
2023-01-09T04:51:54.735Z,97196.56
2023-01-09T04:54:24.228Z,97183.56
2023-01-09T04:56:52.972Z,97188.38
2023-01-09T04:59:25.355Z,97186.00
2023-01-09T05:02:05.669Z,97194.00
2023-01-09T05:04:34.818Z,97184.16
2023-01-09T05:07:03.701Z,97183.63
2023-01-09T05:09:33.522Z,97183.63
2023-01-09T05:12:02.290Z,97182.00
2023-01-09T05:14:32.493Z,97181.41
2023-01-09T05:17:08.447Z,97175.28
2023-01-09T05:19:37.101Z,97165.31
2023-01-09T05:22:07.001Z,97175.78
2023-01-09T05:24:39.585Z,97172.88
2023-01-09T05:27:31.533Z,97173.03
2023-01-09T05:30:05.298Z,97168.50
2023-01-09T05:32:36.511Z,97157.44
2023-01-09T05:35:06.329Z,97164.84
2023-01-09T05:37:35.313Z,97167.22
2023-01-09T05:40:06.119Z,97170.81
2023-01-09T05:42:45.263Z,97172.16
2023-01-09T05:45:21.387Z,97168.47
2023-01-09T05:47:52.526Z,97171.06
2023-01-09T05:50:21.291Z,97166.31
2023-01-09T05:52:52.380Z,97160.69
2023-01-09T05:55:21.406Z,97162.00
2023-01-09T05:57:50.194Z,97153.75
2023-01-09T06:00:22.007Z,97151.91
2023-01-09T06:02:50.831Z,97159.25
2023-01-09T06:05:19.550Z,97159.78
2023-01-09T06:07:48.347Z,97160.88
2023-01-09T06:10:18.378Z,97157.19
2023-01-09T06:12:53.358Z,97160.38
2023-01-09T06:15:23.817Z,97142.84
2023-01-09T06:17:52.589Z,97152.34
2023-01-09T06:20:21.546Z,97155.25
2023-01-09T06:22:53.262Z,97151.88
2023-01-09T06:25:22.022Z,97156.41
2023-01-09T06:27:52.209Z,97156.19
2023-01-09T06:30:22.784Z,97156.75
2023-01-09T06:32:52.108Z,97165.25
2023-01-09T06:35:22.896Z,97174.53
2023-01-09T06:37:51.761Z,97174.78
2023-01-09T06:40:21.361Z,97176.13
2023-01-09T06:42:50.756Z,97174.81
2023-01-09T06:45:19.886Z,97174.81
2023-01-09T06:47:50.832Z,97171.44
2023-01-09T06:50:20.020Z,97181.75
2023-01-09T06:52:48.745Z,97176.44
2023-01-09T06:55:17.889Z,97174.81
2023-01-09T06:57:46.635Z,97178.47
2023-01-09T07:00:16.406Z,97176.38
2023-01-09T07:02:45.129Z,97181.94
2023-01-09T07:08:07.344Z,97183.78
2023-01-09T07:10:35.139Z,97184.56
2023-01-09T07:13:02.618Z,97193.06
2023-01-09T07:15:30.104Z,97190.59
2023-01-09T07:17:57.405Z,97189.84
2023-01-09T07:20:24.777Z,97190.66
2023-01-09T07:22:53.289Z,97191.72
2023-01-09T07:28:47.527Z,97185.81
2023-01-09T07:31:16.710Z,97186.09
2023-01-09T07:33:45.696Z,97196.88
2023-01-09T07:36:14.603Z,97183.91
2023-01-09T07:38:43.427Z,97181.03
2023-01-09T07:41:12.172Z,97195.91
2023-01-09T07:43:41.448Z,97198.56
2023-01-09T07:46:11.644Z,97200.91
2023-01-09T07:48:40.364Z,97205.47
2023-01-09T07:51:10.459Z,97217.69
2023-01-09T07:53:41.455Z,97218.31
2023-01-09T07:56:10.238Z,97217.28
2023-01-09T07:58:41.567Z,97224.50
2023-01-09T08:01:14.413Z,97225.88
2023-01-09T08:03:43.606Z,97221.09
2023-01-09T08:06:12.347Z,97225.88
2023-01-09T08:08:41.026Z,97222.72
2023-01-09T08:11:09.852Z,97231.91
2023-01-09T08:13:39.217Z,97222.31
2023-01-09T08:16:10.296Z,97230.84
2023-01-09T08:18:38.973Z,97226.13
2023-01-09T08:21:07.929Z,97226.94
2023-01-09T08:23:36.676Z,97236.56
2023-01-09T08:26:05.687Z,97246.13
2023-01-09T08:28:34.625Z,97250.66
2023-01-09T08:31:03.502Z,97258.78
2023-01-09T08:33:33.693Z,97257.78
2023-01-09T08:36:02.462Z,97260.97
2023-01-09T08:38:31.178Z,97271.13
2023-01-09T08:41:20.165Z,97265.88
2023-01-09T08:44:06.265Z,97267.47
2023-01-09T08:46:54.856Z,97275.78
2023-01-09T08:49:25.021Z,97274.25
2023-01-09T08:51:53.640Z,97280.38
2023-01-09T08:54:22.312Z,97283.34
2023-01-09T08:56:51.067Z,97280.97
2023-01-09T08:59:19.772Z,97287.41
2023-01-09T09:01:48.498Z,97284.50
2023-01-09T09:04:17.442Z,97288.00
2023-01-09T09:06:47.559Z,97286.47
2023-01-09T09:09:16.489Z,97292.31
2023-01-09T09:11:45.160Z,97290.72
2023-01-09T09:14:31.299Z,97288.88
2023-01-09T09:17:00.011Z,97296.91
2023-01-09T09:19:28.686Z,97293.50
2023-01-09T09:21:59.572Z,97304.41
2023-01-09T09:24:28.437Z,97308.94
2023-01-09T09:26:57.081Z,97306.06
2023-01-09T09:29:25.806Z,97302.66
2023-01-09T09:31:54.487Z,97302.13
2023-01-09T09:34:23.448Z,97299.53
2023-01-09T09:36:52.268Z,97301.69
2023-01-09T09:39:25.819Z,97312.41
2023-01-09T09:42:41.067Z,97307.66
2023-01-09T09:45:32.059Z,97308.72
2023-01-09T09:48:17.540Z,97309.56
2023-01-09T09:51:34.914Z,97312.75
2023-01-09T09:54:13.824Z,97316.31
2023-01-09T09:56:52.631Z,97324.31
2023-01-09T09:59:26.908Z,97327.28
2023-01-09T10:02:01.640Z,97323.88
2023-01-09T10:04:35.261Z,97321.16
2023-01-09T10:07:09.949Z,97323.91
2023-01-09T10:09:50.538Z,97323.44
2023-01-09T10:12:33.687Z,97322.66
2023-01-09T10:15:16.798Z,97329.63
2023-01-09T10:18:13.251Z,97333.41
2023-01-09T10:20:57.731Z,97346.78
2023-01-09T10:24:01.598Z,97343.81
2023-01-09T10:26:41.037Z,97350.16
2023-01-09T10:29:53.287Z,97351.19
2023-01-09T10:32:47.204Z,97358.09
2023-01-09T10:35:47.914Z,97364.97
2023-01-09T10:38:26.220Z,97388.19
2023-01-09T10:41:04.296Z,97407.59
2023-01-09T10:43:44.926Z,97404.22
2023-01-09T10:46:26.395Z,97405.44
2023-01-09T10:49:02.338Z,97397.63
2023-01-09T10:51:40.706Z,97400.81
2023-01-09T10:54:18.587Z,97400.75
2023-01-09T10:56:56.015Z,97404.53
2023-01-09T10:59:26.329Z,97409.84
2023-01-09T11:01:56.701Z,97424.88
2023-01-09T11:04:30.883Z,97429.44
2023-01-09T11:07:30.677Z,97427.06
2023-01-09T11:10:02.586Z,97425.53
2023-01-09T11:12:33.869Z,97422.34
2023-01-09T11:15:31.663Z,97422.28
2023-01-09T11:18:25.748Z,97412.44
2023-01-09T11:20:55.217Z,97414.56
2023-01-09T11:23:34.548Z,97420.69
2023-01-09T11:26:04.708Z,97417.47
2023-01-09T11:28:33.567Z,97424.09
2023-01-09T11:31:03.978Z,97428.13
2023-01-09T11:33:42.929Z,97427.38
2023-01-09T11:36:16.787Z,97424.53
2023-01-09T11:38:52.275Z,97428.22
2023-01-09T11:41:25.908Z,97421.13
2023-01-09T11:43:58.476Z,97415.84
2023-01-09T11:46:39.698Z,97407.53
2023-01-09T11:49:24.229Z,97421.38
2023-01-09T11:52:19.679Z,97415.75
2023-01-09T11:54:56.587Z,97423.56
2023-01-09T11:57:27.214Z,97426.00
2023-01-09T12:00:02.552Z,97434.81
2023-01-09T12:03:06.437Z,97434.66
2023-01-09T12:05:48.008Z,97426.16
2023-01-09T12:08:39.508Z,97426.47
2023-01-09T12:11:27.065Z,97430.16
2023-01-09T12:14:41.584Z,97420.84
2023-01-09T12:17:45.748Z,97417.09
2023-01-09T12:20:52.889Z,97420.06
2023-01-09T12:23:39.221Z,97434.53
2023-01-09T12:26:19.177Z,97440.41
2023-01-09T12:29:17.548Z,97451.09
2023-01-09T12:32:21.535Z,97453.72
2023-01-09T12:35:03.198Z,97453.88
2023-01-09T12:38:24.106Z,97453.53
2023-01-09T12:41:30.033Z,97460.97
2023-01-09T12:44:34.248Z,97462.00
2023-01-09T12:47:26.315Z,97459.88
2023-01-09T12:50:06.790Z,97452.97
2023-01-09T12:52:42.024Z,97462.59
2023-01-09T12:55:21.889Z,97462.09
2023-01-09T12:57:53.279Z,97461.63
2023-01-09T13:00:28.080Z,97459.25
2023-01-09T13:03:12.537Z,97459.84
2023-01-09T13:05:48.472Z,97467.56
2023-01-09T13:08:25.661Z,97476.72
2023-01-09T13:11:18.938Z,97485.28
2023-01-09T13:13:57.024Z,97488.47
2023-01-09T13:16:33.609Z,97491.72
2023-01-09T13:19:12.420Z,97485.50
2023-01-09T13:21:42.637Z,97478.56
2023-01-09T13:24:20.451Z,97491.03
2023-01-09T13:26:57.557Z,97486.25
2023-01-09T13:29:32.877Z,97490.81
2023-01-09T13:32:40.968Z,97490.50
2023-01-09T13:35:16.062Z,97501.69
2023-01-09T13:37:52.191Z,97494.72
2023-01-09T13:40:30.558Z,97502.19
2023-01-09T13:43:06.447Z,97499.53
2023-01-09T13:45:39.846Z,97505.91
2023-01-09T13:48:42.508Z,97498.56
2023-01-09T13:52:03.767Z,97507.13
2023-01-09T13:55:26.725Z,97515.19
2023-01-09T13:59:02.745Z,97529.84
2023-01-09T14:01:47.570Z,97531.66
2023-01-09T14:04:44.724Z,97534.03
2023-01-09T14:07:34.494Z,97533.00
2023-01-09T14:10:09.208Z,97538.06
2023-01-09T14:12:43.295Z,97548.75
2023-01-09T14:15:30.836Z,97553.31
2023-01-09T14:18:07.196Z,97554.34
2023-01-09T14:20:41.249Z,97555.72
2023-01-09T14:23:42.259Z,97549.81
2023-01-09T14:26:21.016Z,97553.28
2023-01-09T14:29:45.950Z,97558.59
2023-01-09T14:32:58.924Z,97567.66
2023-01-09T14:35:41.936Z,97566.38
2023-01-09T14:38:31.218Z,97561.53
2023-01-09T14:41:19.133Z,97563.66
2023-01-09T14:43:59.557Z,97577.75
2023-01-09T14:46:36.124Z,97580.66
2023-01-09T14:49:35.249Z,97587.56
2023-01-09T14:52:22.406Z,97585.56
2023-01-09T14:55:00.917Z,97585.72
2023-01-09T14:57:36.844Z,97590.50
2023-01-09T15:00:20.992Z,97596.56
2023-01-09T15:03:05.655Z,97597.28
2023-01-09T15:06:02.832Z,97599.16
2023-01-09T15:08:40.602Z,97602.56
2023-01-09T15:11:38.445Z,97602.31
2023-01-09T15:14:10.432Z,97607.88
2023-01-09T15:16:40.952Z,97611.59
2023-01-09T15:19:10.791Z,97606.03
2023-01-09T15:21:57.405Z,97613.06
2023-01-09T15:24:30.767Z,97613.88
2023-01-09T15:27:03.130Z,97608.53
2023-01-09T15:29:32.829Z,97611.34
2023-01-09T15:32:09.663Z,97612.66
2023-01-09T15:34:39.273Z,97606.72
2023-01-09T15:37:28.493Z,97612.69
2023-01-09T15:39:59.671Z,97625.31
2023-01-09T15:42:51.102Z,97618.88
2023-01-09T15:45:28.370Z,97631.59
2023-01-09T15:48:17.356Z,97624.66
2023-01-09T15:50:48.823Z,97632.91
2023-01-09T15:53:22.269Z,97637.91
2023-01-09T15:56:16.380Z,97637.09
2023-01-09T15:58:52.181Z,97642.41
2023-01-09T16:01:31.567Z,97631.94
2023-01-09T16:04:10.046Z,97648.34
2023-01-09T16:06:47.521Z,97642.44
2023-01-09T16:09:25.172Z,97654.63
2023-01-09T16:12:01.519Z,97657.75
2023-01-09T16:14:36.318Z,97652.94
2023-01-09T16:17:16.919Z,97651.78
2023-01-09T16:19:52.735Z,97648.47
2023-01-09T16:22:24.746Z,97645.66
2023-01-09T16:24:57.557Z,97641.53
2023-01-09T16:27:32.149Z,97651.28
2023-01-09T16:30:04.003Z,97647.56
2023-01-09T16:32:38.053Z,97658.19
2023-01-09T16:35:16.098Z,97661.56
2023-01-09T16:37:44.890Z,97668.66
2023-01-09T16:41:23.805Z,97674.03
2023-01-09T16:43:52.513Z,97675.16
2023-01-09T16:46:22.765Z,97679.41
2023-01-09T16:48:53.460Z,97673.84
2023-01-09T16:51:49.385Z,97674.88
2023-01-09T16:54:20.093Z,97680.06
2023-01-09T16:56:55.478Z,97679.50
2023-01-09T16:59:29.245Z,97683.81
2023-01-09T17:01:59.107Z,97688.19
2023-01-09T17:04:31.841Z,97689.13
2023-01-09T17:07:00.819Z,97685.06
2023-01-09T17:09:30.915Z,97696.28
2023-01-09T17:12:03.097Z,97690.53
2023-01-09T17:14:32.887Z,97696.31
2023-01-09T17:17:13.665Z,97706.47
2023-01-09T17:22:56.054Z,97716.06
2023-01-09T17:25:42.669Z,97721.50
2023-01-09T17:28:36.063Z,97717.47
2023-01-09T17:31:09.397Z,97717.94
2023-01-09T17:33:40.157Z,97724.28
2023-01-09T17:36:23.741Z,97721.88
2023-01-09T17:38:55.094Z,97719.91
2023-01-09T17:41:25.625Z,97726.72
2023-01-09T17:43:57.035Z,97726.25
2023-01-09T17:46:34.081Z,97738.47
2023-01-09T17:49:04.176Z,97741.59
2023-01-09T17:51:33.730Z,97759.16
2023-01-09T17:54:02.611Z,97753.84
2023-01-09T17:56:35.792Z,97757.28
2023-01-09T17:59:07.422Z,97757.28
2023-01-09T18:01:36.415Z,97762.59
2023-01-09T18:04:05.368Z,97768.56
2023-01-09T18:06:36.581Z,97768.69
2023-01-09T18:09:06.767Z,97777.38
2023-01-09T18:11:36.318Z,97774.91
2023-01-09T18:14:06.530Z,97774.47
2023-01-09T18:16:36.292Z,97772.63
2023-01-09T18:19:05.664Z,97770.31
2023-01-09T18:21:34.587Z,97772.47
2023-01-09T18:24:03.806Z,97786.66
2023-01-09T18:26:32.680Z,97785.75
2023-01-09T18:29:02.677Z,97784.25
2023-01-09T18:31:33.505Z,97788.66
2023-01-09T18:34:05.492Z,97788.78
2023-01-09T18:36:34.905Z,97784.97
2023-01-09T18:39:09.392Z,97791.06
2023-01-09T18:41:40.206Z,97788.66
2023-01-09T18:44:10.154Z,97791.44
2023-01-09T18:46:43.633Z,97793.13
2023-01-09T18:50:23.401Z,97790.81
2023-01-09T18:52:55.256Z,97788.38
2023-01-09T18:55:24.251Z,97784.47
2023-01-09T18:57:53.765Z,97789.78
2023-01-09T19:00:22.964Z,97783.22
2023-01-09T19:02:59.056Z,97786.56
2023-01-09T19:08:11.076Z,97796.47
2023-01-09T19:10:40.905Z,97796.72
2023-01-09T19:13:09.776Z,97802.22
2023-01-09T19:15:38.482Z,97799.81
2023-01-09T19:18:08.303Z,97802.22
2023-01-09T19:20:40.106Z,97799.91
2023-01-09T19:23:10.531Z,97804.97
2023-01-09T19:25:39.662Z,97817.00
2023-01-09T19:28:09.447Z,97814.22
2023-01-09T19:30:41.251Z,97821.94
2023-01-09T19:33:12.330Z,97825.63
2023-01-09T19:35:42.333Z,97830.94
2023-01-09T19:38:12.898Z,97840.00
2023-01-09T19:40:41.631Z,97844.16
2023-01-09T19:43:10.559Z,97845.91
2023-01-09T19:45:41.188Z,97845.75
2023-01-09T19:48:12.450Z,97851.88
2023-01-09T19:50:41.295Z,97862.13
2023-01-09T19:53:11.634Z,97869.94
2023-01-09T19:55:40.479Z,97878.13
2023-01-09T19:58:09.560Z,97881.13
2023-01-09T20:00:39.435Z,97882.63
2023-01-09T20:03:08.498Z,97888.50
2023-01-09T20:05:38.406Z,97889.53
2023-01-09T20:08:08.615Z,97899.75
2023-01-09T20:10:40.758Z,97900.78
2023-01-09T20:13:11.873Z,97900.78
2023-01-09T20:15:42.790Z,97907.84
2023-01-09T20:18:19.491Z,97913.66
2023-01-09T20:20:51.205Z,97915.06
2023-01-09T20:23:21.104Z,97914.97
2023-01-09T20:25:52.053Z,97926.41
2023-01-09T20:28:21.341Z,97918.06
2023-01-09T20:30:52.740Z,97923.81
2023-01-09T20:33:22.874Z,97926.03
2023-01-09T20:35:51.721Z,97928.25
2023-01-09T20:38:20.411Z,97926.53
2023-01-09T20:40:50.541Z,97934.84
2023-01-09T20:43:19.301Z,97944.06
2023-01-09T20:45:48.246Z,97942.38
2023-01-09T20:48:17.249Z,97950.91
2023-01-09T20:50:45.926Z,97959.59
2023-01-09T20:53:14.668Z,97952.47
2023-01-09T20:55:43.278Z,97959.00
2023-01-09T20:58:13.432Z,97957.53
2023-01-09T21:00:42.290Z,97956.06
2023-01-09T21:03:15.419Z,97958.72
2023-01-09T21:05:44.701Z,97963.47
2023-01-09T21:08:13.345Z,97968.53
2023-01-09T21:10:41.990Z,97975.03
2023-01-09T21:13:12.170Z,97974.13
2023-01-09T21:15:40.983Z,97981.66
2023-01-09T21:18:09.809Z,97983.47
2023-01-09T21:20:38.427Z,97982.09
2023-01-09T21:23:09.409Z,97981.66
2023-01-09T21:25:40.894Z,97986.50
2023-01-09T21:28:16.131Z,97982.66
2023-01-09T21:30:49.474Z,97984.31
2023-01-09T21:33:21.088Z,97988.59
2023-01-09T21:35:54.996Z,97994.94
2023-01-09T21:38:24.199Z,97994.47
2023-01-09T21:40:53.649Z,98001.06
2023-01-09T21:43:46.335Z,98002.28
2023-01-09T21:46:33.671Z,98007.34
2023-01-09T21:49:04.825Z,98022.91
2023-01-09T21:51:38.877Z,98027.41
2023-01-09T21:54:07.659Z,98046.22
2023-01-09T21:56:36.641Z,98045.03
2023-01-09T21:59:08.419Z,98048.38
2023-01-09T22:01:37.258Z,98054.28
2023-01-09T22:04:06.337Z,98058.97
2023-01-09T22:06:36.963Z,98063.47
2023-01-09T22:09:05.753Z,98067.25
2023-01-09T22:11:34.561Z,98068.88
2023-01-09T22:14:03.333Z,98061.50
2023-01-09T22:16:33.435Z,98053.53
2023-01-09T22:19:02.215Z,98059.13
2023-01-09T22:21:30.915Z,98059.53
2023-01-09T22:24:01.598Z,98056.63
2023-01-09T22:26:31.051Z,98058.03
2023-01-09T22:28:59.894Z,98047.63
2023-01-09T22:31:29.723Z,98046.25
2023-01-09T22:34:01.474Z,98044.75
2023-01-09T22:36:32.163Z,98039.81
2023-01-09T22:39:01.827Z,98040.25
2023-01-09T22:41:31.464Z,98039.00
2023-01-09T22:44:00.325Z,98032.91
2023-01-09T22:46:29.007Z,98037.41
2023-01-09T22:48:59.047Z,98049.81
2023-01-09T22:51:27.767Z,98057.78
2023-01-09T22:53:56.607Z,98064.59
2023-01-09T22:56:25.408Z,98065.63
2023-01-09T22:58:58.414Z,98073.78
2023-01-09T23:01:27.683Z,98091.72
2023-01-09T23:03:56.457Z,98083.19
2023-01-09T23:06:26.922Z,98093.78
2023-01-09T23:08:55.699Z,98086.06
2023-01-09T23:11:45.657Z,98091.28
2023-01-09T23:14:14.792Z,98099.41
2023-01-09T23:16:43.537Z,98096.00
2023-01-09T23:19:16.177Z,98098.06
2023-01-09T23:21:47.387Z,98102.06
2023-01-09T23:24:18.914Z,98099.16
2023-01-09T23:26:47.858Z,98098.13
2023-01-09T23:29:16.856Z,98109.31
2023-01-09T23:31:46.029Z,98108.19
2023-01-09T23:34:17.849Z,98115.03
2023-01-09T23:36:48.747Z,98118.72
2023-01-09T23:39:17.898Z,98119.06
2023-01-09T23:42:03.953Z,98112.59
2023-01-09T23:44:33.161Z,98124.44
2023-01-09T23:47:01.882Z,98132.19
2023-01-09T23:49:30.602Z,98148.50
2023-01-09T23:52:05.064Z,98153.91
2023-01-09T23:54:33.803Z,98161.63
2023-01-09T23:57:02.806Z,98168.22
2023-01-09T23:59:31.519Z,98179.19
